Time;durP1;ratioP1;P1;durP2;ratioP2;P2;SDS_P1;SDS_P2;PMS_P1;PMS_P2;Temp;Humidity;BMP_temperature;BMP_pressure;BME280_temperature;BME280_humidity;BME280_pressure;Samples;Min_cycle;Max_cycle;Signal;HPM_P1;HPM_P2
2024/01/03 00:00:48;;;;;;;0.83;0.63;;;;;;;;;;6256695;22;20409;-88
2024/01/03 00:03:13;;;;;;;0.80;0.70;;;;;;;;;;6279898;22;20372;-88
2024/01/03 00:05:41;;;;;;;0.63;0.50;;;;;;;;;;6254991;22;20389;-87
2024/01/03 00:08:19;;;;;;;0.60;0.60;;;;;;;;;;6278951;22;20377;-92
2024/01/03 00:10:49;;;;;;;0.60;0.60;;;;;;;;;;6279404;22;20427;-88
2024/01/03 00:13:34;;;;;;;0.80;0.70;;;;;;;;;;6253094;22;20393;-89
2024/01/03 00:16:00;;;;;;;0.60;0.60;;;;;;;;;;6282427;22;20381;-88
2024/01/03 00:18:50;;;;;;;1.43;0.97;;;;;;;;;;6282244;22;20368;-88
2024/01/03 00:21:25;;;;;;;0.60;0.60;;;;;;;;;;6254144;22;20377;-89
2024/01/03 00:23:50;;;;;;;0.80;0.67;;;;;;;;;;6254334;22;20488;-89
2024/01/03 00:26:21;;;;;;;1.90;0.93;;;;;;;;;;6281122;22;20397;-89
2024/01/03 00:28:47;;;;;;;1.23;0.70;;;;;;;;;;6255944;22;20384;-87
2024/01/03 00:31:17;;;;;;;1.57;0.73;;;;;;;;;;6280605;22;20416;-87
2024/01/03 00:33:43;;;;;;;1.97;0.90;;;;;;;;;;6253762;22;20376;-88
2024/01/03 00:36:09;;;;;;;0.93;0.83;;;;;;;;;;6252790;22;20377;-87
2024/01/03 00:38:42;;;;;;;0.77;0.77;;;;;;;;;;6253962;22;20381;-88
2024/01/03 00:41:12;;;;;;;1.90;1.17;;;;;;;;;;6254199;22;20369;-88
2024/01/03 00:43:38;;;;;;;3.40;0.80;;;;;;;;;;6254226;22;20859;-87
2024/01/03 00:46:04;;;;;;;0.70;0.60;;;;;;;;;;6256779;22;20391;-87
2024/01/03 00:48:30;;;;;;;2.50;0.90;;;;;;;;;;6254519;22;20392;-87
2024/01/03 00:50:56;;;;;;;1.57;0.67;;;;;;;;;;6279282;22;20409;-88
2024/01/03 00:53:23;;;;;;;0.90;0.70;;;;;;;;;;6277830;22;20362;-87
2024/01/03 00:55:49;;;;;;;2.70;0.90;;;;;;;;;;6254386;22;20879;-86
2024/01/03 00:58:15;;;;;;;1.37;0.90;;;;;;;;;;6253474;22;20439;-87
2024/01/03 01:00:41;;;;;;;0.70;0.67;;;;;;;;;;6254700;22;20744;-88
2024/01/03 01:03:07;;;;;;;1.83;0.93;;;;;;;;;;6254099;22;20393;-87
2024/01/03 01:05:33;;;;;;;0.70;0.60;;;;;;;;;;6254417;22;20388;-88
2024/01/03 01:08:01;;;;;;;0.80;0.60;;;;;;;;;;6254703;22;20468;-87
2024/01/03 01:10:27;;;;;;;0.93;0.80;;;;;;;;;;6255618;22;20417;-88
2024/01/03 01:12:54;;;;;;;1.10;0.97;;;;;;;;;;6254453;22;20755;-87
2024/01/03 01:15:22;;;;;;;0.80;0.80;;;;;;;;;;6257027;22;20388;-88
2024/01/03 01:17:49;;;;;;;0.80;0.80;;;;;;;;;;6280630;22;20362;-87
2024/01/03 01:20:15;;;;;;;0.83;0.70;;;;;;;;;;6255705;22;20381;-87
2024/01/03 01:22:41;;;;;;;0.80;0.60;;;;;;;;;;6252385;22;20450;-88
2024/01/03 01:25:07;;;;;;;1.90;0.80;;;;;;;;;;6280586;22;20840;-90
2024/01/03 01:27:33;;;;;;;1.17;0.90;;;;;;;;;;6279577;22;20543;-87
2024/01/03 01:29:59;;;;;;;0.80;0.70;;;;;;;;;;6279486;22;20408;-88
2024/01/03 01:32:25;;;;;;;0.80;0.60;;;;;;;;;;6253428;22;20373;-87
2024/01/03 01:34:51;;;;;;;0.90;0.80;;;;;;;;;;6254996;22;20962;-87
2024/01/03 01:37:17;;;;;;;1.10;0.80;;;;;;;;;;6255429;22;20380;-88
2024/01/03 01:39:44;;;;;;;1.00;0.70;;;;;;;;;;6255551;22;20370;-87
2024/01/03 01:42:10;;;;;;;4.00;0.90;;;;;;;;;;6282031;22;20416;-87
2024/01/03 01:44:36;;;;;;;3.33;1.10;;;;;;;;;;6255736;22;20667;-88
2024/01/03 01:47:05;;;;;;;1.90;1.20;;;;;;;;;;6258708;22;20468;-87
2024/01/03 01:49:31;;;;;;;0.70;0.70;;;;;;;;;;6253754;22;20392;-88
2024/01/03 01:51:57;;;;;;;2.10;0.80;;;;;;;;;;6255606;22;20916;-87
2024/01/03 01:54:23;;;;;;;2.20;0.80;;;;;;;;;;6278785;22;20832;-88
2024/01/03 01:56:49;;;;;;;1.50;0.80;;;;;;;;;;6256436;22;20376;-87
2024/01/03 01:59:15;;;;;;;2.60;1.00;;;;;;;;;;6281328;22;20471;-88
2024/01/03 02:01:41;;;;;;;3.33;1.03;;;;;;;;;;6257281;22;20389;-87
2024/01/03 02:04:08;;;;;;;1.10;0.80;;;;;;;;;;6255281;22;20377;-87
2024/01/03 02:06:34;;;;;;;0.60;0.50;;;;;;;;;;6259997;22;20380;-87
2024/01/03 02:09:00;;;;;;;1.17;1.07;;;;;;;;;;6255146;22;20683;-88
2024/01/03 02:11:26;;;;;;;1.17;0.73;;;;;;;;;;6255906;22;20424;-88
2024/01/03 02:13:52;;;;;;;0.90;0.60;;;;;;;;;;6253670;22;20378;-88
2024/01/03 02:16:18;;;;;;;1.63;1.03;;;;;;;;;;6260517;22;20370;-88
2024/01/03 02:18:44;;;;;;;0.60;0.60;;;;;;;;;;6254291;22;20374;-88
2024/01/03 02:21:19;;;;;;;0.87;0.67;;;;;;;;;;6255451;22;20402;-87
2024/01/03 02:23:45;;;;;;;2.30;0.93;;;;;;;;;;6254348;22;20391;-87
2024/01/03 02:26:11;;;;;;;0.70;0.50;;;;;;;;;;6257081;22;21116;-87
2024/01/03 02:28:37;;;;;;;0.70;0.63;;;;;;;;;;6255647;22;20381;-88
2024/01/03 02:31:04;;;;;;;1.53;0.70;;;;;;;;;;6256183;22;20471;-87
2024/01/03 02:33:30;;;;;;;0.60;0.50;;;;;;;;;;6254054;22;20958;-87
2024/01/03 02:35:56;;;;;;;0.83;0.50;;;;;;;;;;6256990;22;20374;-88
2024/01/03 02:38:21;;;;;;;0.60;0.60;;;;;;;;;;6253389;22;20376;-87
2024/01/03 02:40:50;;;;;;;0.60;0.50;;;;;;;;;;6256226;22;20382;-88
2024/01/03 02:43:16;;;;;;;0.60;0.60;;;;;;;;;;6254987;22;20707;-88
2024/01/03 02:45:42;;;;;;;0.60;0.50;;;;;;;;;;6254487;22;20392;-87
2024/01/03 02:48:08;;;;;;;0.70;0.57;;;;;;;;;;6254074;22;20447;-88
2024/01/03 02:50:34;;;;;;;0.60;0.50;;;;;;;;;;6258914;22;20412;-88
2024/01/03 02:53:00;;;;;;;0.93;0.77;;;;;;;;;;6255236;22;20378;-88
2024/01/03 02:55:26;;;;;;;0.80;0.63;;;;;;;;;;6280072;22;20392;-88
2024/01/03 02:57:52;;;;;;;0.70;0.60;;;;;;;;;;6251934;22;20409;-88
2024/01/03 03:00:18;;;;;;;0.83;0.70;;;;;;;;;;6252414;22;20432;-88
2024/01/03 03:02:44;;;;;;;1.20;0.77;;;;;;;;;;6279712;22;20372;-88
2024/01/03 03:05:10;;;;;;;1.00;0.70;;;;;;;;;;6255051;22;20381;-88
2024/01/03 03:07:36;;;;;;;0.60;0.50;;;;;;;;;;6253933;22;20708;-87
2024/01/03 03:10:02;;;;;;;0.60;0.57;;;;;;;;;;6255022;22;20420;-88
2024/01/03 03:12:28;;;;;;;1.83;0.60;;;;;;;;;;6255671;22;20373;-88
2024/01/03 03:14:54;;;;;;;0.70;0.60;;;;;;;;;;6279697;22;20368;-89
2024/01/03 03:17:20;;;;;;;1.67;0.70;;;;;;;;;;6256680;22;20381;-87
2024/01/03 03:19:46;;;;;;;0.60;0.50;;;;;;;;;;6280689;22;20368;-88
2024/01/03 03:22:13;;;;;;;0.80;0.63;;;;;;;;;;6261089;22;20373;-88
2024/01/03 03:24:39;;;;;;;0.70;0.50;;;;;;;;;;6253895;22;20378;-88
2024/01/03 03:27:05;;;;;;;4.70;0.60;;;;;;;;;;6255701;22;20859;-88
2024/01/03 03:29:31;;;;;;;1.00;0.77;;;;;;;;;;6254295;22;20381;-87
2024/01/03 03:31:57;;;;;;;1.70;1.00;;;;;;;;;;6254618;22;20417;-87
2024/01/03 03:34:23;;;;;;;3.43;0.90;;;;;;;;;;6278130;22;20364;-88
2024/01/03 03:36:49;;;;;;;0.70;0.70;;;;;;;;;;6257747;22;20384;-88
2024/01/03 03:39:15;;;;;;;0.73;0.50;;;;;;;;;;6252239;22;20377;-87
2024/01/03 03:41:41;;;;;;;0.70;0.70;;;;;;;;;;6256921;22;20381;-88
2024/01/03 03:44:07;;;;;;;0.63;0.50;;;;;;;;;;6251375;22;20370;-88
2024/01/03 03:46:33;;;;;;;1.83;0.70;;;;;;;;;;6254796;22;20849;-88
2024/01/03 03:48:59;;;;;;;0.90;0.90;;;;;;;;;;6252371;22;20377;-86
2024/01/03 03:51:26;;;;;;;0.80;0.70;;;;;;;;;;6257881;22;20452;-88
2024/01/03 03:53:52;;;;;;;0.80;0.70;;;;;;;;;;6255124;22;20377;-88
2024/01/03 03:56:25;;;;;;;1.97;0.90;;;;;;;;;;6254323;22;20904;-87
2024/01/03 03:58:51;;;;;;;1.10;0.70;;;;;;;;;;6280168;22;20370;-87
2024/01/03 04:01:17;;;;;;;1.77;0.53;;;;;;;;;;6253907;22;20460;-87
2024/01/03 04:03:43;;;;;;;4.00;1.20;;;;;;;;;;6254187;22;20373;-87
2024/01/03 04:06:09;;;;;;;0.70;0.60;;;;;;;;;;6253601;22;20400;-87
2024/01/03 04:08:35;;;;;;;0.90;0.90;;;;;;;;;;6282881;22;20369;-87
2024/01/03 04:11:04;;;;;;;2.60;1.73;;;;;;;;;;6279076;22;20416;-88
2024/01/03 04:13:30;;;;;;;2.70;1.00;;;;;;;;;;6257577;22;20380;-87
2024/01/03 04:15:56;;;;;;;1.67;1.30;;;;;;;;;;6253091;22;20379;-87
2024/01/03 04:18:23;;;;;;;1.07;1.00;;;;;;;;;;6256142;22;20709;-87
2024/01/03 04:20:49;;;;;;;1.53;1.43;;;;;;;;;;6253435;22;20414;-87
2024/01/03 04:23:15;;;;;;;2.30;1.10;;;;;;;;;;6259274;22;20951;-87
2024/01/03 04:25:41;;;;;;;1.50;1.00;;;;;;;;;;6253641;22;20410;-87
2024/01/03 04:28:07;;;;;;;2.63;1.23;;;;;;;;;;6282653;22;20384;-87
2024/01/03 04:30:33;;;;;;;2.03;1.20;;;;;;;;;;6253248;22;20920;-89
2024/01/03 04:32:59;;;;;;;1.10;1.00;;;;;;;;;;6253940;22;20385;-88
2024/01/03 04:35:25;;;;;;;1.10;1.00;;;;;;;;;;6252831;22;20370;-86
2024/01/03 04:37:51;;;;;;;2.80;1.13;;;;;;;;;;6254566;22;20392;-88
2024/01/03 04:40:17;;;;;;;1.00;0.90;;;;;;;;;;6278847;22;20413;-87
2024/01/03 04:42:43;;;;;;;1.00;0.90;;;;;;;;;;6255469;22;20370;-88
2024/01/03 04:45:09;;;;;;;1.63;1.03;;;;;;;;;;6252902;22;20381;-87
2024/01/03 04:47:35;;;;;;;0.80;0.70;;;;;;;;;;6258132;22;20381;-87
2024/01/03 04:50:01;;;;;;;3.10;1.00;;;;;;;;;;6252779;22;20942;-88
2024/01/03 04:52:27;;;;;;;1.10;0.70;;;;;;;;;;6253361;22;20464;-87
2024/01/03 04:54:53;;;;;;;1.40;1.20;;;;;;;;;;6252781;22;20373;-87
2024/01/03 04:57:19;;;;;;;4.10;1.77;;;;;;;;;;6259004;22;20369;-87
2024/01/03 04:59:45;;;;;;;1.37;0.73;;;;;;;;;;6255585;22;20378;-89
2024/01/03 05:02:11;;;;;;;1.80;1.70;;;;;;;;;;6255026;22;20436;-87
2024/01/03 05:04:37;;;;;;;1.73;0.73;;;;;;;;;;6255951;22;20403;-87
2024/01/03 05:07:04;;;;;;;0.67;0.57;;;;;;;;;;6254374;22;20718;-87
2024/01/03 05:09:34;;;;;;;10.80;1.37;;;;;;;;;;6256334;22;20409;-88
2024/01/03 05:12:00;;;;;;;2.00;0.67;;;;;;;;;;6280772;22;20393;-88
2024/01/03 05:14:26;;;;;;;1.60;1.30;;;;;;;;;;6256115;22;20466;-87
2024/01/03 05:16:52;;;;;;;2.80;0.90;;;;;;;;;;6277438;22;20367;-87
2024/01/03 05:19:18;;;;;;;0.80;0.60;;;;;;;;;;6281661;22;20400;-88
2024/01/03 05:21:44;;;;;;;2.33;1.03;;;;;;;;;;6249461;22;20781;-88
2024/01/03 05:24:10;;;;;;;2.97;1.10;;;;;;;;;;6253297;22;20892;-87
2024/01/03 05:26:36;;;;;;;1.43;1.07;;;;;;;;;;6254092;22;20747;-87
2024/01/03 05:29:02;;;;;;;3.03;1.17;;;;;;;;;;6284799;22;20365;-87
2024/01/03 05:31:28;;;;;;;4.83;1.07;;;;;;;;;;6252852;22;20420;-88
2024/01/03 05:33:54;;;;;;;6.60;1.23;;;;;;;;;;6280184;22;20362;-85
2024/01/03 05:36:20;;;;;;;3.83;0.77;;;;;;;;;;6255128;22;20416;-87
2024/01/03 05:38:46;;;;;;;0.80;0.80;;;;;;;;;;6256657;22;20433;-88
2024/01/03 05:41:12;;;;;;;1.10;1.00;;;;;;;;;;6257561;22;20377;-87
2024/01/03 05:43:38;;;;;;;1.43;0.77;;;;;;;;;;6282616;22;20974;-88
2024/01/03 05:46:04;;;;;;;6.80;0.93;;;;;;;;;;6257121;22;20389;-87
2024/01/03 05:48:31;;;;;;;1.23;0.97;;;;;;;;;;6256235;22;20381;-88
2024/01/03 05:50:57;;;;;;;1.43;0.93;;;;;;;;;;6258628;22;20424;-88
2024/01/03 05:53:23;;;;;;;1.80;0.90;;;;;;;;;;6255803;22;20381;-88
2024/01/03 05:55:49;;;;;;;1.00;0.63;;;;;;;;;;6255498;22;20807;-88
2024/01/03 05:58:15;;;;;;;0.90;0.70;;;;;;;;;;6254620;22;20357;-88
2024/01/03 06:00:41;;;;;;;1.10;1.00;;;;;;;;;;6285868;22;20754;-88
2024/01/03 06:03:07;;;;;;;2.13;1.00;;;;;;;;;;6253166;22;20390;-89
2024/01/03 06:05:33;;;;;;;4.00;1.20;;;;;;;;;;6279215;22;20358;-87
2024/01/03 06:08:00;;;;;;;0.70;0.70;;;;;;;;;;6252942;22;20377;-87
2024/01/03 06:10:26;;;;;;;1.87;0.80;;;;;;;;;;6255712;22;20416;-87
2024/01/03 06:12:52;;;;;;;2.23;0.93;;;;;;;;;;6254845;22;20419;-87
2024/01/03 06:15:18;;;;;;;1.07;0.83;;;;;;;;;;6255297;22;20702;-87
2024/01/03 06:17:44;;;;;;;0.77;0.70;;;;;;;;;;6256923;22;20378;-88
2024/01/03 06:20:10;;;;;;;2.53;1.07;;;;;;;;;;6256283;22;20500;-87
2024/01/03 06:22:36;;;;;;;2.87;1.13;;;;;;;;;;6283322;22;20362;-87
2024/01/03 06:25:02;;;;;;;3.97;1.30;;;;;;;;;;6256006;22;20397;-86
2024/01/03 06:27:28;;;;;;;0.80;0.60;;;;;;;;;;6256046;22;20380;-87
2024/01/03 06:29:54;;;;;;;2.03;1.77;;;;;;;;;;6254549;22;20373;-87
2024/01/03 06:32:20;;;;;;;0.77;0.73;;;;;;;;;;6261005;22;20373;-88
2024/01/03 06:34:46;;;;;;;3.00;0.90;;;;;;;;;;6254066;22;20915;-87
2024/01/03 06:37:12;;;;;;;3.43;2.40;;;;;;;;;;6256816;22;20373;-87
2024/01/03 06:39:38;;;;;;;3.53;1.10;;;;;;;;;;6257651;22;20391;-92
2024/01/03 06:42:04;;;;;;;5.37;1.30;;;;;;;;;;6260602;22;20461;-94
2024/01/03 06:44:30;;;;;;;1.10;0.87;;;;;;;;;;6258439;22;20380;-93
2024/01/03 06:46:56;;;;;;;2.90;1.07;;;;;;;;;;6259111;22;20382;-90
2024/01/03 06:49:23;;;;;;;0.87;0.67;;;;;;;;;;6256749;22;20389;-90
2024/01/03 06:51:49;;;;;;;0.80;0.80;;;;;;;;;;6285617;22;20417;-93
2024/01/03 06:54:15;;;;;;;2.77;1.07;;;;;;;;;;6255555;22;20398;-91
2024/01/03 06:56:41;;;;;;;1.07;0.97;;;;;;;;;;6261906;22;20530;-93
2024/01/03 06:59:07;;;;;;;0.70;0.70;;;;;;;;;;6258042;22;20404;-93
2024/01/03 07:01:33;;;;;;;1.50;1.00;;;;;;;;;;6259387;22;20875;-95
2024/01/03 07:04:01;;;;;;;1.20;0.80;;;;;;;;;;6259273;22;20385;-93
2024/01/03 07:06:27;;;;;;;1.27;0.90;;;;;;;;;;6266024;22;20400;-95
2024/01/03 07:08:53;;;;;;;2.83;0.97;;;;;;;;;;6259786;22;20393;-94
2024/01/03 07:11:20;;;;;;;3.50;1.03;;;;;;;;;;6260177;22;20433;-93
2024/01/03 07:13:46;;;;;;;2.50;0.80;;;;;;;;;;6261817;22;20793;-93
2024/01/03 07:16:12;;;;;;;1.57;0.90;;;;;;;;;;6258702;22;20401;-93
2024/01/03 07:18:38;;;;;;;0.77;0.73;;;;;;;;;;6261036;22;20388;-93
2024/01/03 07:21:05;;;;;;;1.97;0.80;;;;;;;;;;6258920;22;20389;-93
2024/01/03 07:23:31;;;;;;;2.07;0.97;;;;;;;;;;6262081;22;20406;-94
2024/01/03 07:25:57;;;;;;;3.00;0.93;;;;;;;;;;6258363;22;20864;-94
2024/01/03 07:28:23;;;;;;;3.83;0.60;;;;;;;;;;6260868;22;20357;-90
2024/01/03 07:30:50;;;;;;;0.77;0.70;;;;;;;;;;6258743;22;20417;-92
2024/01/03 07:33:16;;;;;;;1.40;0.87;;;;;;;;;;6257370;22;20406;-94
2024/01/03 07:35:42;;;;;;;3.43;1.50;;;;;;;;;;6256243;22;20388;-92
2024/01/03 07:38:08;;;;;;;0.77;0.60;;;;;;;;;;6262368;22;20381;-93
2024/01/03 07:40:35;;;;;;;2.80;1.00;;;;;;;;;;6259452;22;20684;-93
2024/01/03 07:43:01;;;;;;;1.80;0.80;;;;;;;;;;6261207;22;20458;-94
2024/01/03 07:45:26;;;;;;;3.43;1.10;;;;;;;;;;6258361;22;20429;-94
2024/01/03 07:47:52;;;;;;;1.30;0.90;;;;;;;;;;6260942;22;20461;-92
2024/01/03 07:50:19;;;;;;;1.37;1.00;;;;;;;;;;6258374;22;20417;-93
2024/01/03 07:52:46;;;;;;;1.63;1.17;;;;;;;;;;6262349;22;20896;-92
2024/01/03 07:55:12;;;;;;;0.80;0.70;;;;;;;;;;6259925;22;20397;-94
2024/01/03 07:57:38;;;;;;;5.13;2.07;;;;;;;;;;6262942;22;20378;-94
2024/01/03 08:00:04;;;;;;;1.37;0.87;;;;;;;;;;6262024;22;20411;-95
2024/01/03 08:02:30;;;;;;;1.70;1.10;;;;;;;;;;6260464;22;20393;-96
2024/01/03 08:04:56;;;;;;;1.20;0.80;;;;;;;;;;6284928;22;20448;-90
2024/01/03 08:07:23;;;;;;;6.40;1.00;;;;;;;;;;6257267;22;20395;-90
2024/01/03 08:09:50;;;;;;;1.63;1.00;;;;;;;;;;6255179;22;20427;-94
2024/01/03 08:12:16;;;;;;;2.10;1.13;;;;;;;;;;6257896;22;20973;-91
2024/01/03 08:14:42;;;;;;;1.10;0.80;;;;;;;;;;6257426;22;20485;-93
2024/01/03 08:17:09;;;;;;;1.73;0.80;;;;;;;;;;6253507;22;20393;-91
2024/01/03 08:19:35;;;;;;;1.03;0.70;;;;;;;;;;6256821;22;20407;-93
2024/01/03 08:22:01;;;;;;;7.70;1.07;;;;;;;;;;6255541;22;20405;-92
2024/01/03 08:24:27;;;;;;;2.83;1.10;;;;;;;;;;6256711;22;20378;-91
2024/01/03 08:26:53;;;;;;;3.90;1.10;;;;;;;;;;6254755;22;20384;-94
2024/01/03 08:29:19;;;;;;;1.77;0.80;;;;;;;;;;6260945;22;20409;-93
2024/01/03 08:31:48;;;;;;;2.53;0.80;;;;;;;;;;6256427;22;20424;-90
2024/01/03 08:34:14;;;;;;;3.40;0.90;;;;;;;;;;6257037;22;20381;-94
2024/01/03 08:36:44;;;;;;;0.70;0.70;;;;;;;;;;6256767;22;20674;-91
2024/01/03 08:39:10;;;;;;;3.10;1.10;;;;;;;;;;6256936;22;20369;-90
2024/01/03 08:41:36;;;;;;;1.00;0.63;;;;;;;;;;6256164;22;20416;-93
2024/01/03 08:44:03;;;;;;;3.83;0.80;;;;;;;;;;6261674;22;20353;-92
2024/01/03 08:46:31;;;;;;;1.10;0.77;;;;;;;;;;6261409;22;20405;-92
2024/01/03 08:48:57;;;;;;;1.73;0.80;;;;;;;;;;6260308;22;20381;-90
2024/01/03 08:51:24;;;;;;;2.00;1.10;;;;;;;;;;6260391;22;20428;-92
2024/01/03 08:53:50;;;;;;;1.23;1.00;;;;;;;;;;6260220;22;20425;-91
2024/01/03 08:56:17;;;;;;;1.00;0.70;;;;;;;;;;6263605;22;20464;-94
2024/01/03 08:58:43;;;;;;;0.60;0.57;;;;;;;;;;6260950;22;20943;-89
2024/01/03 09:01:11;;;;;;;8.83;1.30;;;;;;;;;;6262984;22;20396;-92
2024/01/03 09:03:38;;;;;;;2.83;0.90;;;;;;;;;;6263065;22;20377;-92
2024/01/03 09:06:05;;;;;;;3.10;0.90;;;;;;;;;;6261901;22;20386;-93
2024/01/03 09:08:31;;;;;;;2.00;0.93;;;;;;;;;;6259033;22;20381;-92
2024/01/03 09:10:57;;;;;;;1.87;0.90;;;;;;;;;;6260861;22;20470;-92
2024/01/03 09:13:23;;;;;;;2.30;0.90;;;;;;;;;;6257673;22;20389;-94
2024/01/03 09:15:49;;;;;;;1.93;0.67;;;;;;;;;;6263351;22;20786;-91
2024/01/03 09:18:15;;;;;;;1.07;0.87;;;;;;;;;;6256620;22;20393;-94
2024/01/03 09:20:41;;;;;;;2.30;0.70;;;;;;;;;;6258586;22;20544;-90
2024/01/03 09:23:07;;;;;;;2.03;1.03;;;;;;;;;;6258701;22;20405;-92
2024/01/03 09:25:33;;;;;;;1.70;1.10;;;;;;;;;;6228534;22;20390;-90
2024/01/03 09:27:59;;;;;;;1.43;0.93;;;;;;;;;;6202536;22;20382;-91
2024/01/03 09:30:25;;;;;;;1.93;0.80;;;;;;;;;;6203799;23;20485;-92
2024/01/03 09:32:51;;;;;;;1.87;0.60;;;;;;;;;;6199642;23;20417;-90
2024/01/03 09:35:17;;;;;;;1.60;0.80;;;;;;;;;;6199324;23;20382;-91
2024/01/03 09:37:43;;;;;;;5.13;1.03;;;;;;;;;;6201185;23;20394;-92
2024/01/03 09:40:11;;;;;;;1.33;0.80;;;;;;;;;;6203557;22;20394;-91
2024/01/03 09:42:37;;;;;;;2.43;0.90;;;;;;;;;;6204110;23;20456;-91
2024/01/03 09:45:04;;;;;;;0.60;0.60;;;;;;;;;;6204704;23;20460;-90
2024/01/03 09:47:30;;;;;;;1.00;0.63;;;;;;;;;;6205582;23;20839;-93
2024/01/03 09:49:56;;;;;;;3.03;0.60;;;;;;;;;;6202671;23;20783;-92
2024/01/03 09:52:23;;;;;;;0.93;0.83;;;;;;;;;;6204134;23;20441;-93
2024/01/03 09:54:49;;;;;;;0.70;0.60;;;;;;;;;;6202511;23;20409;-93
2024/01/03 09:57:15;;;;;;;1.67;0.73;;;;;;;;;;6247933;22;20389;-90
2024/01/03 09:59:41;;;;;;;1.03;1.03;;;;;;;;;;6282481;22;20373;-90
2024/01/03 10:02:09;;;;;;;1.37;0.90;;;;;;;;;;6259687;22;20389;-92
2024/01/03 10:04:35;;;;;;;0.90;0.60;;;;;;;;;;6258125;22;20365;-90
2024/01/03 10:07:01;;;;;;;0.80;0.63;;;;;;;;;;6254905;22;20388;-92
2024/01/03 10:09:40;;;;;;;4.17;1.23;;;;;;;;;;6254393;22;20381;-90
2024/01/03 10:12:16;;;;;;;2.00;0.80;;;;;;;;;;6259800;22;20412;-89
2024/01/03 10:14:44;;;;;;;1.00;0.87;;;;;;;;;;6260468;22;20903;-89
2024/01/03 10:17:10;;;;;;;2.23;1.20;;;;;;;;;;6265556;22;20886;-92
2024/01/03 10:19:36;;;;;;;2.60;0.90;;;;;;;;;;6262017;22;20397;-92
2024/01/03 10:22:03;;;;;;;0.90;0.70;;;;;;;;;;6261767;22;20384;-92
2024/01/03 10:24:29;;;;;;;1.83;1.13;;;;;;;;;;6258131;22;20385;-93
2024/01/03 10:27:10;;;;;;;1.37;0.83;;;;;;;;;;6261053;22;20381;-93
2024/01/03 10:29:37;;;;;;;2.10;0.90;;;;;;;;;;6260649;22;20472;-89
2024/01/03 10:32:05;;;;;;;1.07;0.97;;;;;;;;;;6263005;22;20433;-91
2024/01/03 10:34:31;;;;;;;2.07;0.90;;;;;;;;;;6261371;22;20389;-91
2024/01/03 10:36:58;;;;;;;2.10;0.83;;;;;;;;;;6260767;22;20392;-90
2024/01/03 10:39:25;;;;;;;2.27;0.90;;;;;;;;;;6261700;22;20440;-91
2024/01/03 10:41:52;;;;;;;1.00;0.70;;;;;;;;;;6261014;22;20392;-90
2024/01/03 10:44:18;;;;;;;1.17;0.87;;;;;;;;;;6228263;23;20384;-92
2024/01/03 10:46:44;;;;;;;1.27;0.70;;;;;;;;;;6231971;23;20442;-93
2024/01/03 10:49:11;;;;;;;1.07;0.77;;;;;;;;;;6231600;23;20390;-94
2024/01/03 10:51:40;;;;;;;3.30;1.43;;;;;;;;;;6229502;23;20417;-95
2024/01/03 10:54:10;;;;;;;1.07;0.80;;;;;;;;;;6229781;22;20374;-93
2024/01/03 10:56:36;;;;;;;1.10;0.80;;;;;;;;;;6227611;22;20390;-95
2024/01/03 10:59:03;;;;;;;1.37;0.87;;;;;;;;;;6231509;22;20386;-94
2024/01/03 11:01:30;;;;;;;0.93;0.70;;;;;;;;;;6226074;23;20389;-91
2024/01/03 11:04:08;;;;;;;0.80;0.63;;;;;;;;;;6230421;23;20383;-94
2024/01/03 11:06:53;;;;;;;0.60;0.50;;;;;;;;;;6250536;23;20371;-92
2024/01/03 11:09:19;;;;;;;0.67;0.60;;;;;;;;;;6251527;23;20381;-93
2024/01/03 11:11:45;;;;;;;3.87;0.70;;;;;;;;;;6226163;23;20415;-91
2024/01/03 11:14:17;;;;;;;2.20;1.03;;;;;;;;;;6229158;22;20436;-91
2024/01/03 11:16:43;;;;;;;1.20;0.70;;;;;;;;;;6283699;22;20385;-93
2024/01/03 11:19:09;;;;;;;1.63;0.73;;;;;;;;;;6263650;22;20397;-93
2024/01/03 11:21:35;;;;;;;1.27;0.97;;;;;;;;;;6262207;22;20429;-90
2024/01/03 11:24:06;;;;;;;0.80;0.57;;;;;;;;;;6287336;22;20748;-95
2024/01/03 11:26:51;;;;;;;1.60;0.70;;;;;;;;;;6263813;22;20463;-94
2024/01/03 11:29:35;;;;;;;1.73;0.63;;;;;;;;;;6287706;22;20431;-94
2024/01/03 11:32:04;;;;;;;1.30;0.97;;;;;;;;;;6290315;22;20459;-93
2024/01/03 11:34:36;;;;;;;1.07;0.63;;;;;;;;;;6263526;22;20397;-93
2024/01/03 11:37:02;;;;;;;0.90;0.63;;;;;;;;;;6290427;22;20413;-94
2024/01/03 11:39:47;;;;;;;0.80;0.70;;;;;;;;;;6261226;22;20914;-95
2024/01/03 11:42:28;;;;;;;0.80;0.70;;;;;;;;;;6289427;22;20404;-93
2024/01/03 11:45:09;;;;;;;1.33;0.80;;;;;;;;;;6262999;22;20407;-93
2024/01/03 11:47:39;;;;;;;3.33;0.80;;;;;;;;;;6284004;22;20523;-93
2024/01/03 11:50:07;;;;;;;1.20;0.80;;;;;;;;;;6260697;22;20393;-91
2024/01/03 11:52:34;;;;;;;1.13;0.80;;;;;;;;;;6262783;22;20405;-92
2024/01/03 11:55:05;;;;;;;1.00;0.50;;;;;;;;;;6262064;22;20949;-94
2024/01/03 11:57:32;;;;;;;1.20;0.67;;;;;;;;;;6263127;22;20377;-92
2024/01/03 12:00:02;;;;;;;1.83;0.97;;;;;;;;;;6259335;22;20512;-94
2024/01/03 12:02:28;;;;;;;0.97;0.60;;;;;;;;;;6261887;22;20381;-93
2024/01/03 12:05:00;;;;;;;0.90;0.60;;;;;;;;;;6258656;22;20373;-91
2024/01/03 12:07:27;;;;;;;2.13;0.70;;;;;;;;;;6261682;22;20402;-94
2024/01/03 12:09:53;;;;;;;2.60;0.60;;;;;;;;;;6255696;22;20388;-92
2024/01/03 12:12:19;;;;;;;4.87;1.20;;;;;;;;;;6256882;22;20369;-92
2024/01/03 12:14:53;;;;;;;0.83;0.60;;;;;;;;;;6257735;22;20381;-94
2024/01/03 12:17:26;;;;;;;1.63;0.77;;;;;;;;;;6259198;22;20507;-94
2024/01/03 12:19:52;;;;;;;1.83;0.90;;;;;;;;;;6258734;22;20710;-91
2024/01/03 12:22:24;;;;;;;2.10;0.70;;;;;;;;;;6260895;22;20397;-93
2024/01/03 12:24:51;;;;;;;3.50;1.03;;;;;;;;;;6260240;22;20396;-92
2024/01/03 12:27:23;;;;;;;1.93;1.23;;;;;;;;;;6259756;22;20373;-91
2024/01/03 12:29:49;;;;;;;1.87;0.80;;;;;;;;;;6260311;22;20708;-90
2024/01/03 12:32:16;;;;;;;0.80;0.63;;;;;;;;;;6260154;22;20425;-94
2024/01/03 12:34:43;;;;;;;1.80;1.53;;;;;;;;;;6261151;22;20401;-95
2024/01/03 12:37:11;;;;;;;1.70;0.90;;;;;;;;;;6287993;22;20470;-91
2024/01/03 12:39:37;;;;;;;2.20;0.80;;;;;;;;;;6265005;22;20369;-92
2024/01/03 12:42:04;;;;;;;1.33;0.80;;;;;;;;;;6262256;22;20730;-93
2024/01/03 12:44:31;;;;;;;0.80;0.70;;;;;;;;;;6261729;22;20395;-91
2024/01/03 12:46:57;;;;;;;1.00;0.83;;;;;;;;;;6259439;22;20385;-96
2024/01/03 12:49:23;;;;;;;0.97;0.80;;;;;;;;;;6259220;22;20380;-92
2024/01/03 12:51:49;;;;;;;1.83;0.87;;;;;;;;;;6257118;22;20413;-93
2024/01/03 12:54:19;;;;;;;1.77;0.67;;;;;;;;;;6261182;22;20384;-91
2024/01/03 12:56:45;;;;;;;2.80;0.77;;;;;;;;;;6283245;22;20376;-92
2024/01/03 12:59:11;;;;;;;1.40;0.90;;;;;;;;;;6260778;22;20758;-92
2024/01/03 13:01:37;;;;;;;0.67;0.60;;;;;;;;;;6258729;22;20400;-95
2024/01/03 13:04:03;;;;;;;2.03;0.60;;;;;;;;;;6261118;22;20369;-93
2024/01/03 13:06:29;;;;;;;0.80;0.80;;;;;;;;;;6259861;22;20464;-94
2024/01/03 13:08:55;;;;;;;1.63;0.60;;;;;;;;;;6262113;22;20389;-95
2024/01/03 13:11:21;;;;;;;0.80;0.67;;;;;;;;;;6256625;22;20420;-94
2024/01/03 13:13:47;;;;;;;1.10;0.60;;;;;;;;;;6259112;22;20384;-96
2024/01/03 13:16:13;;;;;;;1.10;0.60;;;;;;;;;;6258973;22;20448;-93
2024/01/03 13:18:42;;;;;;;1.57;0.73;;;;;;;;;;6259069;22;20382;-93
2024/01/03 13:21:11;;;;;;;3.17;0.80;;;;;;;;;;6255800;22;20476;-94
2024/01/03 13:23:37;;;;;;;0.83;0.80;;;;;;;;;;6259012;22;20388;-91
2024/01/03 13:26:03;;;;;;;1.97;0.70;;;;;;;;;;6262970;22;20389;-91
2024/01/03 13:28:29;;;;;;;0.77;0.50;;;;;;;;;;6258617;22;20384;-92
2024/01/03 13:30:55;;;;;;;1.07;0.67;;;;;;;;;;6260840;22;20469;-93
2024/01/03 13:33:21;;;;;;;2.50;0.70;;;;;;;;;;6256590;22;20419;-90
2024/01/03 13:35:48;;;;;;;0.70;0.60;;;;;;;;;;6256339;22;20705;-91
2024/01/03 13:38:14;;;;;;;3.03;0.70;;;;;;;;;;6255904;22;20393;-92
2024/01/03 13:40:42;;;;;;;2.20;0.60;;;;;;;;;;6258993;22;20407;-93
2024/01/03 13:43:11;;;;;;;0.73;0.70;;;;;;;;;;6281622;22;20370;-93
2024/01/03 13:45:38;;;;;;;2.20;0.90;;;;;;;;;;6255924;22;20369;-93
2024/01/03 13:48:04;;;;;;;0.90;0.77;;;;;;;;;;6281358;22;20385;-92
2024/01/03 13:50:30;;;;;;;0.80;0.67;;;;;;;;;;6258475;22;20420;-91
2024/01/03 13:52:57;;;;;;;1.77;0.90;;;;;;;;;;6256624;22;20833;-91
2024/01/03 13:55:23;;;;;;;1.53;0.80;;;;;;;;;;6258363;22;20449;-91
2024/01/03 13:57:49;;;;;;;1.57;1.07;;;;;;;;;;6256387;22;20397;-91
2024/01/03 14:00:17;;;;;;;1.03;0.90;;;;;;;;;;6258065;22;20388;-94
2024/01/03 14:02:43;;;;;;;0.70;0.53;;;;;;;;;;6258755;22;20385;-92
2024/01/03 14:05:11;;;;;;;1.13;0.60;;;;;;;;;;6261489;22;20469;-92
2024/01/03 14:07:37;;;;;;;4.33;0.90;;;;;;;;;;6260902;22;20384;-91
2024/01/03 14:10:07;;;;;;;0.90;0.70;;;;;;;;;;6258832;22;20412;-92
2024/01/03 14:12:32;;;;;;;1.17;0.77;;;;;;;;;;6258310;22;20431;-93
2024/01/03 14:14:59;;;;;;;0.77;0.77;;;;;;;;;;6260132;22;20397;-93
2024/01/03 14:17:25;;;;;;;1.13;0.93;;;;;;;;;;6259391;22;20381;-96
2024/01/03 14:19:51;;;;;;;0.90;0.70;;;;;;;;;;6257272;22;20384;-92
2024/01/03 14:22:17;;;;;;;1.90;0.70;;;;;;;;;;6257856;22;20709;-93
2024/01/03 14:24:43;;;;;;;1.30;0.90;;;;;;;;;;6259942;22;20371;-91
2024/01/03 14:27:09;;;;;;;1.00;0.83;;;;;;;;;;6257850;22;20400;-91
2024/01/03 14:29:35;;;;;;;1.67;1.00;;;;;;;;;;6256785;22;20377;-91
2024/01/03 14:32:01;;;;;;;1.47;0.70;;;;;;;;;;6255734;22;20421;-92
2024/01/03 14:34:27;;;;;;;1.00;0.80;;;;;;;;;;6259699;22;20382;-93
2024/01/03 14:37:05;;;;;;;0.70;0.60;;;;;;;;;;6256719;22;20380;-93
2024/01/03 14:39:32;;;;;;;1.83;0.90;;;;;;;;;;6280596;22;20377;-92
2024/01/03 14:41:58;;;;;;;1.33;1.20;;;;;;;;;;6257271;22;20496;-94